sensor_id;sensor_type;location;lat;lon;timestamp;P1;durP1;ratioP1;P2;durP2;ratioP2
11006;SDS011;8186;57.652;11.968;2023-03-23T00:01:00;21.00;;;4.90;;
11006;SDS011;8186;57.652;11.968;2023-03-23T00:03:27;25.10;;;6.57;;
11006;SDS011;8186;57.652;11.968;2023-03-23T00:05:57;29.47;;;5.17;;
11006;SDS011;8186;57.652;11.968;2023-03-23T00:08:30;28.43;;;5.37;;
11006;SDS011;8186;57.652;11.968;2023-03-23T00:10:57;30.40;;;5.73;;
11006;SDS011;8186;57.652;11.968;2023-03-23T00:13:28;29.77;;;6.40;;
11006;SDS011;8186;57.652;11.968;2023-03-23T00:15:55;26.63;;;5.10;;
11006;SDS011;8186;57.652;11.968;2023-03-23T00:18:23;35.73;;;6.23;;
11006;SDS011;8186;57.652;11.968;2023-03-23T00:20:51;29.13;;;5.93;;
11006;SDS011;8186;57.652;11.968;2023-03-23T00:23:19;23.93;;;4.73;;
11006;SDS011;8186;57.652;11.968;2023-03-23T00:25:48;28.80;;;5.40;;
11006;SDS011;8186;57.652;11.968;2023-03-23T00:28:18;26.50;;;5.00;;
11006;SDS011;8186;57.652;11.968;2023-03-23T00:30:55;23.50;;;5.43;;
11006;SDS011;8186;57.652;11.968;2023-03-23T00:33:23;22.70;;;5.13;;
11006;SDS011;8186;57.652;11.968;2023-03-23T00:35:51;18.93;;;5.50;;
11006;SDS011;8186;57.652;11.968;2023-03-23T00:38:19;30.07;;;6.53;;
11006;SDS011;8186;57.652;11.968;2023-03-23T00:40:47;32.67;;;5.30;;
11006;SDS011;8186;57.652;11.968;2023-03-23T00:43:14;29.03;;;5.97;;
11006;SDS011;8186;57.652;11.968;2023-03-23T00:45:42;22.33;;;5.20;;
11006;SDS011;8186;57.652;11.968;2023-03-23T00:48:16;26.50;;;5.77;;
11006;SDS011;8186;57.652;11.968;2023-03-23T00:50:43;30.70;;;5.80;;
11006;SDS011;8186;57.652;11.968;2023-03-23T00:53:10;26.77;;;5.80;;
11006;SDS011;8186;57.652;11.968;2023-03-23T00:55:37;25.93;;;5.47;;
11006;SDS011;8186;57.652;11.968;2023-03-23T00:58:06;26.40;;;6.63;;
11006;SDS011;8186;57.652;11.968;2023-03-23T01:00:32;28.80;;;5.87;;
11006;SDS011;8186;57.652;11.968;2023-03-23T01:02:59;22.57;;;5.97;;
11006;SDS011;8186;57.652;11.968;2023-03-23T01:05:28;24.10;;;4.40;;
11006;SDS011;8186;57.652;11.968;2023-03-23T01:07:57;29.13;;;5.63;;
11006;SDS011;8186;57.652;11.968;2023-03-23T01:10:24;27.63;;;6.07;;
11006;SDS011;8186;57.652;11.968;2023-03-23T01:12:52;20.97;;;4.57;;
11006;SDS011;8186;57.652;11.968;2023-03-23T01:15:19;27.53;;;5.87;;
11006;SDS011;8186;57.652;11.968;2023-03-23T01:17:46;27.27;;;5.57;;
11006;SDS011;8186;57.652;11.968;2023-03-23T01:20:14;30.87;;;6.63;;
11006;SDS011;8186;57.652;11.968;2023-03-23T01:22:43;31.40;;;6.50;;
11006;SDS011;8186;57.652;11.968;2023-03-23T01:25:10;18.47;;;4.37;;
11006;SDS011;8186;57.652;11.968;2023-03-23T01:27:38;24.77;;;6.00;;
11006;SDS011;8186;57.652;11.968;2023-03-23T01:30:06;25.87;;;5.00;;
11006;SDS011;8186;57.652;11.968;2023-03-23T01:32:34;23.83;;;5.73;;
11006;SDS011;8186;57.652;11.968;2023-03-23T01:35:00;32.07;;;6.73;;
11006;SDS011;8186;57.652;11.968;2023-03-23T01:37:27;21.90;;;5.17;;
11006;SDS011;8186;57.652;11.968;2023-03-23T01:39:56;27.90;;;6.00;;
11006;SDS011;8186;57.652;11.968;2023-03-23T01:42:24;32.80;;;4.67;;
11006;SDS011;8186;57.652;11.968;2023-03-23T01:48:04;27.67;;;6.10;;
11006;SDS011;8186;57.652;11.968;2023-03-23T01:50:34;25.40;;;5.73;;
11006;SDS011;8186;57.652;11.968;2023-03-23T01:53:06;25.53;;;5.83;;
11006;SDS011;8186;57.652;11.968;2023-03-23T01:55:36;30.20;;;5.43;;
11006;SDS011;8186;57.652;11.968;2023-03-23T01:58:04;28.77;;;5.97;;
11006;SDS011;8186;57.652;11.968;2023-03-23T02:00:32;25.33;;;4.60;;
11006;SDS011;8186;57.652;11.968;2023-03-23T02:03:00;26.37;;;5.37;;
11006;SDS011;8186;57.652;11.968;2023-03-23T02:05:29;24.00;;;5.10;;
11006;SDS011;8186;57.652;11.968;2023-03-23T02:07:58;23.97;;;5.17;;
11006;SDS011;8186;57.652;11.968;2023-03-23T02:10:28;33.47;;;6.53;;
11006;SDS011;8186;57.652;11.968;2023-03-23T02:12:57;26.60;;;5.27;;
11006;SDS011;8186;57.652;11.968;2023-03-23T02:15:25;22.43;;;5.80;;
11006;SDS011;8186;57.652;11.968;2023-03-23T02:17:54;22.43;;;4.40;;
11006;SDS011;8186;57.652;11.968;2023-03-23T02:20:38;25.90;;;5.93;;
11006;SDS011;8186;57.652;11.968;2023-03-23T02:23:37;30.77;;;4.97;;
11006;SDS011;8186;57.652;11.968;2023-03-23T02:26:16;22.10;;;4.70;;
11006;SDS011;8186;57.652;11.968;2023-03-23T02:31:43;25.60;;;5.43;;
11006;SDS011;8186;57.652;11.968;2023-03-23T02:34:16;18.00;;;5.20;;
11006;SDS011;8186;57.652;11.968;2023-03-23T02:36:44;22.83;;;4.77;;
11006;SDS011;8186;57.652;11.968;2023-03-23T02:39:13;25.60;;;6.03;;
11006;SDS011;8186;57.652;11.968;2023-03-23T02:41:43;25.83;;;4.90;;
11006;SDS011;8186;57.652;11.968;2023-03-23T02:44:12;33.30;;;5.97;;
11006;SDS011;8186;57.652;11.968;2023-03-23T02:46:40;21.10;;;5.10;;
11006;SDS011;8186;57.652;11.968;2023-03-23T02:49:08;20.63;;;6.00;;
11006;SDS011;8186;57.652;11.968;2023-03-23T02:51:37;22.67;;;5.63;;
11006;SDS011;8186;57.652;11.968;2023-03-23T02:54:04;24.43;;;5.70;;
11006;SDS011;8186;57.652;11.968;2023-03-23T02:56:32;27.80;;;5.90;;
11006;SDS011;8186;57.652;11.968;2023-03-23T02:58:59;25.37;;;5.90;;
11006;SDS011;8186;57.652;11.968;2023-03-23T03:04:35;21.80;;;5.00;;
11006;SDS011;8186;57.652;11.968;2023-03-23T03:09:55;17.57;;;4.93;;
11006;SDS011;8186;57.652;11.968;2023-03-23T03:12:27;22.57;;;4.83;;
11006;SDS011;8186;57.652;11.968;2023-03-23T03:14:59;22.97;;;5.03;;
11006;SDS011;8186;57.652;11.968;2023-03-23T03:17:33;24.03;;;5.57;;
11006;SDS011;8186;57.652;11.968;2023-03-23T03:20:05;21.93;;;5.47;;
11006;SDS011;8186;57.652;11.968;2023-03-23T03:22:37;24.57;;;5.83;;
11006;SDS011;8186;57.652;11.968;2023-03-23T03:25:07;22.37;;;5.80;;
11006;SDS011;8186;57.652;11.968;2023-03-23T03:27:37;19.40;;;6.17;;
11006;SDS011;8186;57.652;11.968;2023-03-23T03:30:06;14.13;;;4.37;;
11006;SDS011;8186;57.652;11.968;2023-03-23T03:32:38;20.80;;;5.30;;
11006;SDS011;8186;57.652;11.968;2023-03-23T03:35:09;15.97;;;5.00;;
11006;SDS011;8186;57.652;11.968;2023-03-23T03:37:38;17.23;;;4.83;;
11006;SDS011;8186;57.652;11.968;2023-03-23T03:40:06;20.07;;;5.47;;
11006;SDS011;8186;57.652;11.968;2023-03-23T03:42:37;19.77;;;4.80;;
11006;SDS011;8186;57.652;11.968;2023-03-23T03:45:05;18.80;;;4.97;;
11006;SDS011;8186;57.652;11.968;2023-03-23T03:47:33;21.07;;;5.13;;
11006;SDS011;8186;57.652;11.968;2023-03-23T03:50:00;12.73;;;4.23;;
11006;SDS011;8186;57.652;11.968;2023-03-23T03:52:27;14.67;;;4.13;;
11006;SDS011;8186;57.652;11.968;2023-03-23T03:54:55;16.33;;;5.40;;
11006;SDS011;8186;57.652;11.968;2023-03-23T03:57:22;20.17;;;5.13;;
11006;SDS011;8186;57.652;11.968;2023-03-23T03:59:49;15.20;;;4.27;;
11006;SDS011;8186;57.652;11.968;2023-03-23T04:02:17;14.13;;;5.53;;
11006;SDS011;8186;57.652;11.968;2023-03-23T04:04:45;16.80;;;4.50;;
11006;SDS011;8186;57.652;11.968;2023-03-23T04:07:13;16.67;;;5.30;;
11006;SDS011;8186;57.652;11.968;2023-03-23T04:09:41;16.10;;;4.57;;
11006;SDS011;8186;57.652;11.968;2023-03-23T04:12:10;14.00;;;4.30;;
11006;SDS011;8186;57.652;11.968;2023-03-23T04:14:37;16.20;;;4.53;;
11006;SDS011;8186;57.652;11.968;2023-03-23T04:17:03;13.30;;;4.80;;
11006;SDS011;8186;57.652;11.968;2023-03-23T04:19:32;16.17;;;5.00;;
11006;SDS011;8186;57.652;11.968;2023-03-23T04:21:59;13.03;;;4.30;;
11006;SDS011;8186;57.652;11.968;2023-03-23T04:24:26;17.37;;;4.70;;
11006;SDS011;8186;57.652;11.968;2023-03-23T04:26:56;16.30;;;4.97;;
11006;SDS011;8186;57.652;11.968;2023-03-23T04:29:25;12.67;;;4.23;;
11006;SDS011;8186;57.652;11.968;2023-03-23T04:31:52;11.80;;;4.80;;
11006;SDS011;8186;57.652;11.968;2023-03-23T04:34:21;10.40;;;4.00;;
11006;SDS011;8186;57.652;11.968;2023-03-23T04:36:48;12.03;;;4.60;;
11006;SDS011;8186;57.652;11.968;2023-03-23T04:39:16;9.70;;;3.93;;
11006;SDS011;8186;57.652;11.968;2023-03-23T04:41:43;12.70;;;4.63;;
11006;SDS011;8186;57.652;11.968;2023-03-23T04:44:11;16.50;;;4.70;;
11006;SDS011;8186;57.652;11.968;2023-03-23T04:46:44;9.03;;;3.97;;
11006;SDS011;8186;57.652;11.968;2023-03-23T04:49:15;11.00;;;4.07;;
11006;SDS011;8186;57.652;11.968;2023-03-23T04:51:46;14.07;;;4.20;;
11006;SDS011;8186;57.652;11.968;2023-03-23T04:54:13;9.97;;;4.13;;
11006;SDS011;8186;57.652;11.968;2023-03-23T04:56:40;8.77;;;3.70;;
11006;SDS011;8186;57.652;11.968;2023-03-23T04:59:07;12.30;;;4.00;;
11006;SDS011;8186;57.652;11.968;2023-03-23T05:01:34;9.03;;;3.70;;
11006;SDS011;8186;57.652;11.968;2023-03-23T05:04:04;10.23;;;3.43;;
11006;SDS011;8186;57.652;11.968;2023-03-23T05:06:31;11.57;;;4.20;;
11006;SDS011;8186;57.652;11.968;2023-03-23T05:08:58;11.67;;;4.53;;
11006;SDS011;8186;57.652;11.968;2023-03-23T05:11:25;7.80;;;3.83;;
11006;SDS011;8186;57.652;11.968;2023-03-23T05:13:52;8.40;;;4.00;;
11006;SDS011;8186;57.652;11.968;2023-03-23T05:16:18;12.23;;;4.07;;
11006;SDS011;8186;57.652;11.968;2023-03-23T05:18:45;9.93;;;4.17;;
11006;SDS011;8186;57.652;11.968;2023-03-23T05:21:14;8.57;;;4.03;;
11006;SDS011;8186;57.652;11.968;2023-03-23T05:23:41;10.00;;;4.40;;
11006;SDS011;8186;57.652;11.968;2023-03-23T05:26:08;12.97;;;4.27;;
11006;SDS011;8186;57.652;11.968;2023-03-23T05:28:35;13.43;;;4.30;;
11006;SDS011;8186;57.652;11.968;2023-03-23T05:31:02;11.97;;;4.73;;
11006;SDS011;8186;57.652;11.968;2023-03-23T05:33:29;9.40;;;4.43;;
11006;SDS011;8186;57.652;11.968;2023-03-23T05:35:56;14.27;;;4.80;;
11006;SDS011;8186;57.652;11.968;2023-03-23T05:38:25;14.77;;;5.33;;
11006;SDS011;8186;57.652;11.968;2023-03-23T05:40:51;12.80;;;4.47;;
11006;SDS011;8186;57.652;11.968;2023-03-23T05:43:19;9.87;;;5.40;;
11006;SDS011;8186;57.652;11.968;2023-03-23T05:45:46;8.33;;;4.83;;
11006;SDS011;8186;57.652;11.968;2023-03-23T05:48:13;13.43;;;5.63;;
11006;SDS011;8186;57.652;11.968;2023-03-23T05:50:39;10.83;;;5.50;;
11006;SDS011;8186;57.652;11.968;2023-03-23T05:53:06;10.37;;;4.80;;
11006;SDS011;8186;57.652;11.968;2023-03-23T05:55:36;10.50;;;5.27;;
11006;SDS011;8186;57.652;11.968;2023-03-23T05:58:03;9.83;;;5.10;;
11006;SDS011;8186;57.652;11.968;2023-03-23T06:00:30;12.20;;;5.73;;
11006;SDS011;8186;57.652;11.968;2023-03-23T06:02:57;13.60;;;6.23;;
11006;SDS011;8186;57.652;11.968;2023-03-23T06:05:26;14.87;;;6.10;;
11006;SDS011;8186;57.652;11.968;2023-03-23T06:07:54;11.70;;;5.97;;
11006;SDS011;8186;57.652;11.968;2023-03-23T06:10:21;13.23;;;6.53;;
11006;SDS011;8186;57.652;11.968;2023-03-23T06:12:50;11.93;;;5.23;;
11006;SDS011;8186;57.652;11.968;2023-03-23T06:15:17;14.97;;;5.60;;
11006;SDS011;8186;57.652;11.968;2023-03-23T06:17:45;12.40;;;5.90;;
11006;SDS011;8186;57.652;11.968;2023-03-23T06:20:12;12.30;;;5.73;;
11006;SDS011;8186;57.652;11.968;2023-03-23T06:22:39;9.27;;;5.63;;
11006;SDS011;8186;57.652;11.968;2023-03-23T06:25:07;14.43;;;6.47;;
11006;SDS011;8186;57.652;11.968;2023-03-23T06:27:36;9.67;;;6.17;;
11006;SDS011;8186;57.652;11.968;2023-03-23T06:30:05;13.60;;;7.03;;
11006;SDS011;8186;57.652;11.968;2023-03-23T06:32:33;15.30;;;6.77;;
11006;SDS011;8186;57.652;11.968;2023-03-23T06:35:00;12.23;;;6.13;;
11006;SDS011;8186;57.652;11.968;2023-03-23T06:37:28;14.20;;;7.20;;
11006;SDS011;8186;57.652;11.968;2023-03-23T06:39:55;11.93;;;6.93;;
11006;SDS011;8186;57.652;11.968;2023-03-23T06:42:22;16.50;;;7.10;;
11006;SDS011;8186;57.652;11.968;2023-03-23T06:44:50;15.63;;;7.87;;
11006;SDS011;8186;57.652;11.968;2023-03-23T06:47:19;15.77;;;7.77;;
11006;SDS011;8186;57.652;11.968;2023-03-23T06:49:46;13.60;;;8.30;;
11006;SDS011;8186;57.652;11.968;2023-03-23T06:52:12;14.03;;;7.90;;
11006;SDS011;8186;57.652;11.968;2023-03-23T06:54:39;17.43;;;8.87;;
11006;SDS011;8186;57.652;11.968;2023-03-23T06:57:07;11.07;;;8.03;;
11006;SDS011;8186;57.652;11.968;2023-03-23T06:59:34;13.53;;;8.40;;
11006;SDS011;8186;57.652;11.968;2023-03-23T07:02:01;17.73;;;9.20;;
11006;SDS011;8186;57.652;11.968;2023-03-23T07:04:29;15.63;;;8.53;;
11006;SDS011;8186;57.652;11.968;2023-03-23T07:06:57;16.97;;;8.27;;
11006;SDS011;8186;57.652;11.968;2023-03-23T07:09:24;16.27;;;9.30;;
11006;SDS011;8186;57.652;11.968;2023-03-23T07:11:51;15.43;;;10.00;;
11006;SDS011;8186;57.652;11.968;2023-03-23T07:14:18;16.77;;;9.20;;
11006;SDS011;8186;57.652;11.968;2023-03-23T07:16:45;16.17;;;9.53;;
11006;SDS011;8186;57.652;11.968;2023-03-23T07:19:11;14.77;;;9.20;;
11006;SDS011;8186;57.652;11.968;2023-03-23T07:21:40;17.17;;;9.33;;
11006;SDS011;8186;57.652;11.968;2023-03-23T07:24:09;14.30;;;9.10;;
11006;SDS011;8186;57.652;11.968;2023-03-23T07:26:37;12.87;;;8.27;;
11006;SDS011;8186;57.652;11.968;2023-03-23T07:29:04;10.17;;;7.40;;
11006;SDS011;8186;57.652;11.968;2023-03-23T07:31:31;15.63;;;8.70;;
11006;SDS011;8186;57.652;11.968;2023-03-23T07:33:58;13.27;;;8.57;;
11006;SDS011;8186;57.652;11.968;2023-03-23T07:36:26;11.30;;;7.67;;
11006;SDS011;8186;57.652;11.968;2023-03-23T07:38:54;15.90;;;8.47;;
11006;SDS011;8186;57.652;11.968;2023-03-23T07:41:21;11.70;;;7.93;;
11006;SDS011;8186;57.652;11.968;2023-03-23T07:43:48;14.40;;;8.03;;
11006;SDS011;8186;57.652;11.968;2023-03-23T07:46:15;9.93;;;7.50;;
11006;SDS011;8186;57.652;11.968;2023-03-23T07:48:42;12.23;;;7.70;;
11006;SDS011;8186;57.652;11.968;2023-03-23T07:51:09;10.67;;;7.33;;
11006;SDS011;8186;57.652;11.968;2023-03-23T07:53:36;10.50;;;7.17;;
11006;SDS011;8186;57.652;11.968;2023-03-23T07:56:05;11.63;;;7.33;;
11006;SDS011;8186;57.652;11.968;2023-03-23T07:58:33;9.80;;;7.53;;
11006;SDS011;8186;57.652;11.968;2023-03-23T08:01:00;10.60;;;7.57;;
11006;SDS011;8186;57.652;11.968;2023-03-23T08:03:27;8.93;;;6.77;;
11006;SDS011;8186;57.652;11.968;2023-03-23T08:05:56;8.20;;;6.70;;
11006;SDS011;8186;57.652;11.968;2023-03-23T08:08:24;10.03;;;6.50;;
11006;SDS011;8186;57.652;11.968;2023-03-23T08:10:51;8.23;;;6.77;;
11006;SDS011;8186;57.652;11.968;2023-03-23T08:13:19;8.57;;;6.10;;
11006;SDS011;8186;57.652;11.968;2023-03-23T08:15:46;6.47;;;5.83;;
11006;SDS011;8186;57.652;11.968;2023-03-23T08:18:13;6.90;;;5.77;;
11006;SDS011;8186;57.652;11.968;2023-03-23T08:20:40;7.67;;;5.10;;
11006;SDS011;8186;57.652;11.968;2023-03-23T08:23:08;7.33;;;5.10;;
11006;SDS011;8186;57.652;11.968;2023-03-23T08:25:34;7.27;;;4.77;;
11006;SDS011;8186;57.652;11.968;2023-03-23T08:28:01;5.80;;;4.97;;
11006;SDS011;8186;57.652;11.968;2023-03-23T08:30:30;5.00;;;4.50;;
11006;SDS011;8186;57.652;11.968;2023-03-23T08:32:59;5.27;;;4.77;;
11006;SDS011;8186;57.652;11.968;2023-03-23T08:35:26;6.47;;;4.80;;
11006;SDS011;8186;57.652;11.968;2023-03-23T08:37:53;4.77;;;3.97;;
11006;SDS011;8186;57.652;11.968;2023-03-23T08:40:21;5.17;;;4.53;;
11006;SDS011;8186;57.652;11.968;2023-03-23T08:42:49;5.53;;;4.23;;
11006;SDS011;8186;57.652;11.968;2023-03-23T08:45:18;5.10;;;4.30;;
11006;SDS011;8186;57.652;11.968;2023-03-23T08:47:47;6.80;;;3.50;;
11006;SDS011;8186;57.652;11.968;2023-03-23T08:50:19;5.43;;;3.90;;
11006;SDS011;8186;57.652;11.968;2023-03-23T08:52:49;4.67;;;3.73;;
11006;SDS011;8186;57.652;11.968;2023-03-23T08:55:18;5.47;;;3.77;;
11006;SDS011;8186;57.652;11.968;2023-03-23T08:57:45;6.23;;;4.30;;
11006;SDS011;8186;57.652;11.968;2023-03-23T09:00:13;5.20;;;4.17;;
11006;SDS011;8186;57.652;11.968;2023-03-23T09:02:43;4.40;;;4.00;;
11006;SDS011;8186;57.652;11.968;2023-03-23T09:05:12;5.07;;;4.43;;
11006;SDS011;8186;57.652;11.968;2023-03-23T09:07:40;5.30;;;4.00;;
11006;SDS011;8186;57.652;11.968;2023-03-23T09:10:08;5.40;;;3.90;;
11006;SDS011;8186;57.652;11.968;2023-03-23T09:12:36;5.07;;;3.63;;
11006;SDS011;8186;57.652;11.968;2023-03-23T09:15:04;4.23;;;3.83;;
11006;SDS011;8186;57.652;11.968;2023-03-23T09:17:34;5.10;;;3.70;;
11006;SDS011;8186;57.652;11.968;2023-03-23T09:20:02;4.33;;;3.90;;
11006;SDS011;8186;57.652;11.968;2023-03-23T09:22:37;4.90;;;3.73;;
11006;SDS011;8186;57.652;11.968;2023-03-23T09:25:05;5.53;;;3.93;;
11006;SDS011;8186;57.652;11.968;2023-03-23T09:27:33;4.30;;;3.90;;
11006;SDS011;8186;57.652;11.968;2023-03-23T09:30:02;5.37;;;4.27;;
11006;SDS011;8186;57.652;11.968;2023-03-23T09:32:31;5.43;;;4.93;;
11006;SDS011;8186;57.652;11.968;2023-03-23T09:35:00;7.43;;;5.57;;
11006;SDS011;8186;57.652;11.968;2023-03-23T09:37:27;7.67;;;6.43;;
11006;SDS011;8186;57.652;11.968;2023-03-23T09:39:55;7.80;;;6.03;;
11006;SDS011;8186;57.652;11.968;2023-03-23T09:42:31;7.07;;;6.03;;
11006;SDS011;8186;57.652;11.968;2023-03-23T09:45:09;7.13;;;6.43;;
11006;SDS011;8186;57.652;11.968;2023-03-23T09:47:44;8.47;;;7.00;;
11006;SDS011;8186;57.652;11.968;2023-03-23T09:50:14;9.00;;;8.10;;
11006;SDS011;8186;57.652;11.968;2023-03-23T09:52:44;9.00;;;7.90;;
11006;SDS011;8186;57.652;11.968;2023-03-23T09:55:16;10.27;;;8.57;;
11006;SDS011;8186;57.652;11.968;2023-03-23T09:57:45;15.97;;;11.07;;
11006;SDS011;8186;57.652;11.968;2023-03-23T10:00:23;11.70;;;10.43;;
11006;SDS011;8186;57.652;11.968;2023-03-23T10:02:55;13.00;;;10.50;;
11006;SDS011;8186;57.652;11.968;2023-03-23T10:05:31;11.73;;;10.10;;
11006;SDS011;8186;57.652;11.968;2023-03-23T10:08:00;13.87;;;10.90;;
11006;SDS011;8186;57.652;11.968;2023-03-23T10:10:31;13.93;;;10.90;;
11006;SDS011;8186;57.652;11.968;2023-03-23T10:13:04;12.93;;;10.70;;
11006;SDS011;8186;57.652;11.968;2023-03-23T10:15:40;10.83;;;7.20;;
11006;SDS011;8186;57.652;11.968;2023-03-23T10:18:09;11.13;;;7.83;;
11006;SDS011;8186;57.652;11.968;2023-03-23T10:20:42;10.00;;;6.73;;
11006;SDS011;8186;57.652;11.968;2023-03-23T10:23:13;10.07;;;6.37;;
11006;SDS011;8186;57.652;11.968;2023-03-23T10:25:50;10.00;;;6.40;;
11006;SDS011;8186;57.652;11.968;2023-03-23T10:28:20;8.57;;;6.33;;
11006;SDS011;8186;57.652;11.968;2023-03-23T10:30:49;8.37;;;5.60;;
11006;SDS011;8186;57.652;11.968;2023-03-23T10:33:20;7.60;;;5.33;;
11006;SDS011;8186;57.652;11.968;2023-03-23T10:35:51;6.07;;;4.17;;
11006;SDS011;8186;57.652;11.968;2023-03-23T10:38:22;9.60;;;5.03;;
11006;SDS011;8186;57.652;11.968;2023-03-23T10:40:54;8.30;;;4.23;;
11006;SDS011;8186;57.652;11.968;2023-03-23T10:43:23;8.10;;;3.90;;
11006;SDS011;8186;57.652;11.968;2023-03-23T10:45:53;9.07;;;3.80;;
11006;SDS011;8186;57.652;11.968;2023-03-23T10:48:26;5.33;;;3.63;;
11006;SDS011;8186;57.652;11.968;2023-03-23T10:50:57;6.37;;;3.97;;
11006;SDS011;8186;57.652;11.968;2023-03-23T10:53:27;7.73;;;3.80;;
11006;SDS011;8186;57.652;11.968;2023-03-23T10:56:00;5.10;;;2.80;;
11006;SDS011;8186;57.652;11.968;2023-03-23T10:58:28;7.43;;;3.30;;
11006;SDS011;8186;57.652;11.968;2023-03-23T11:00:57;6.60;;;3.23;;
11006;SDS011;8186;57.652;11.968;2023-03-23T11:03:25;4.20;;;2.73;;
11006;SDS011;8186;57.652;11.968;2023-03-23T11:06:00;5.70;;;2.70;;
11006;SDS011;8186;57.652;11.968;2023-03-23T11:08:30;4.97;;;2.90;;
11006;SDS011;8186;57.652;11.968;2023-03-23T11:11:07;6.00;;;2.60;;
11006;SDS011;8186;57.652;11.968;2023-03-23T11:13:38;8.70;;;2.43;;
11006;SDS011;8186;57.652;11.968;2023-03-23T11:16:09;8.20;;;2.47;;
11006;SDS011;8186;57.652;11.968;2023-03-23T11:18:38;6.23;;;2.30;;
11006;SDS011;8186;57.652;11.968;2023-03-23T11:21:08;6.93;;;3.07;;
11006;SDS011;8186;57.652;11.968;2023-03-23T11:23:39;8.73;;;2.20;;
11006;SDS011;8186;57.652;11.968;2023-03-23T11:26:13;9.67;;;2.70;;
11006;SDS011;8186;57.652;11.968;2023-03-23T11:28:43;8.57;;;2.43;;
11006;SDS011;8186;57.652;11.968;2023-03-23T11:31:11;4.90;;;2.10;;
11006;SDS011;8186;57.652;11.968;2023-03-23T11:33:39;8.27;;;2.77;;
11006;SDS011;8186;57.652;11.968;2023-03-23T11:36:10;3.27;;;1.63;;
11006;SDS011;8186;57.652;11.968;2023-03-23T11:38:39;4.83;;;1.97;;
11006;SDS011;8186;57.652;11.968;2023-03-23T11:41:09;5.23;;;2.40;;
11006;SDS011;8186;57.652;11.968;2023-03-23T11:43:40;5.87;;;2.43;;
11006;SDS011;8186;57.652;11.968;2023-03-23T11:46:13;6.10;;;2.07;;
11006;SDS011;8186;57.652;11.968;2023-03-23T11:48:49;6.10;;;2.20;;
11006;SDS011;8186;57.652;11.968;2023-03-23T11:51:20;8.43;;;2.03;;
11006;SDS011;8186;57.652;11.968;2023-03-23T11:53:54;3.60;;;1.80;;
11006;SDS011;8186;57.652;11.968;2023-03-23T11:56:24;4.57;;;2.00;;
11006;SDS011;8186;57.652;11.968;2023-03-23T11:58:55;5.83;;;1.57;;
11006;SDS011;8186;57.652;11.968;2023-03-23T12:01:36;3.77;;;1.80;;
11006;SDS011;8186;57.652;11.968;2023-03-23T12:04:13;4.70;;;1.47;;
11006;SDS011;8186;57.652;11.968;2023-03-23T12:07:13;2.33;;;1.20;;
11006;SDS011;8186;57.652;11.968;2023-03-23T12:09:48;3.20;;;1.10;;
11006;SDS011;8186;57.652;11.968;2023-03-23T12:12:26;2.17;;;1.13;;
11006;SDS011;8186;57.652;11.968;2023-03-23T12:15:00;2.80;;;1.10;;
11006;SDS011;8186;57.652;11.968;2023-03-23T12:17:37;3.77;;;1.30;;
11006;SDS011;8186;57.652;11.968;2023-03-23T12:20:18;2.23;;;1.07;;
11006;SDS011;8186;57.652;11.968;2023-03-23T12:22:54;3.03;;;0.90;;
11006;SDS011;8186;57.652;11.968;2023-03-23T12:25:48;3.83;;;1.00;;
11006;SDS011;8186;57.652;11.968;2023-03-23T12:28:45;3.43;;;1.07;;
11006;SDS011;8186;57.652;11.968;2023-03-23T12:31:28;3.43;;;1.00;;
11006;SDS011;8186;57.652;11.968;2023-03-23T12:34:05;4.57;;;1.20;;
11006;SDS011;8186;57.652;11.968;2023-03-23T12:36:38;3.07;;;0.80;;
11006;SDS011;8186;57.652;11.968;2023-03-23T12:39:36;1.83;;;0.87;;
11006;SDS011;8186;57.652;11.968;2023-03-23T12:42:11;3.17;;;1.10;;
11006;SDS011;8186;57.652;11.968;2023-03-23T12:44:44;7.70;;;1.50;;
11006;SDS011;8186;57.652;11.968;2023-03-23T12:47:20;5.63;;;1.60;;
11006;SDS011;8186;57.652;11.968;2023-03-23T12:49:52;5.83;;;1.93;;
11006;SDS011;8186;57.652;11.968;2023-03-23T12:52:22;7.43;;;2.83;;
11006;SDS011;8186;57.652;11.968;2023-03-23T12:54:53;7.10;;;1.97;;
11006;SDS011;8186;57.652;11.968;2023-03-23T12:57:23;6.40;;;2.00;;
11006;SDS011;8186;57.652;11.968;2023-03-23T12:59:57;8.10;;;2.27;;
11006;SDS011;8186;57.652;11.968;2023-03-23T13:02:37;11.17;;;2.30;;
11006;SDS011;8186;57.652;11.968;2023-03-23T13:05:08;17.37;;;3.43;;
11006;SDS011;8186;57.652;11.968;2023-03-23T13:07:39;7.90;;;2.53;;
11006;SDS011;8186;57.652;11.968;2023-03-23T13:10:12;10.10;;;2.93;;
11006;SDS011;8186;57.652;11.968;2023-03-23T13:12:45;10.97;;;2.43;;
11006;SDS011;8186;57.652;11.968;2023-03-23T13:15:16;11.93;;;2.97;;
11006;SDS011;8186;57.652;11.968;2023-03-23T13:17:51;8.13;;;2.37;;
11006;SDS011;8186;57.652;11.968;2023-03-23T13:20:32;11.70;;;2.43;;
11006;SDS011;8186;57.652;11.968;2023-03-23T13:23:05;9.60;;;2.60;;
11006;SDS011;8186;57.652;11.968;2023-03-23T13:25:46;13.03;;;2.93;;
11006;SDS011;8186;57.652;11.968;2023-03-23T13:28:16;11.97;;;2.33;;
11006;SDS011;8186;57.652;11.968;2023-03-23T13:30:56;22.40;;;3.47;;
11006;SDS011;8186;57.652;11.968;2023-03-23T13:33:25;14.37;;;2.63;;
11006;SDS011;8186;57.652;11.968;2023-03-23T13:35:56;12.07;;;2.33;;
11006;SDS011;8186;57.652;11.968;2023-03-23T13:38:30;10.77;;;2.30;;
11006;SDS011;8186;57.652;11.968;2023-03-23T13:40:57;13.30;;;2.53;;
11006;SDS011;8186;57.652;11.968;2023-03-23T13:43:26;14.10;;;2.40;;
11006;SDS011;8186;57.652;11.968;2023-03-23T13:45:54;11.30;;;2.50;;
11006;SDS011;8186;57.652;11.968;2023-03-23T13:48:23;9.27;;;2.70;;
11006;SDS011;8186;57.652;11.968;2023-03-23T13:50:54;11.60;;;2.83;;
11006;SDS011;8186;57.652;11.968;2023-03-23T13:53:23;7.97;;;2.10;;
11006;SDS011;8186;57.652;11.968;2023-03-23T13:56:04;9.17;;;1.93;;
11006;SDS011;8186;57.652;11.968;2023-03-23T13:58:43;8.77;;;2.27;;
11006;SDS011;8186;57.652;11.968;2023-03-23T14:01:12;9.27;;;2.43;;
11006;SDS011;8186;57.652;11.968;2023-03-23T14:03:42;8.33;;;2.37;;
11006;SDS011;8186;57.652;11.968;2023-03-23T14:06:17;12.27;;;2.50;;
11006;SDS011;8186;57.652;11.968;2023-03-23T14:08:47;15.07;;;2.40;;
11006;SDS011;8186;57.652;11.968;2023-03-23T14:11:17;9.30;;;2.37;;
11006;SDS011;8186;57.652;11.968;2023-03-23T14:13:50;12.00;;;3.20;;
11006;SDS011;8186;57.652;11.968;2023-03-23T14:16:25;9.80;;;2.60;;
11006;SDS011;8186;57.652;11.968;2023-03-23T14:18:57;8.73;;;2.67;;
11006;SDS011;8186;57.652;11.968;2023-03-23T14:21:32;10.00;;;2.83;;
11006;SDS011;8186;57.652;11.968;2023-03-23T14:24:01;9.67;;;2.97;;
11006;SDS011;8186;57.652;11.968;2023-03-23T14:26:28;13.40;;;3.27;;
11006;SDS011;8186;57.652;11.968;2023-03-23T14:28:55;11.20;;;3.23;;
11006;SDS011;8186;57.652;11.968;2023-03-23T14:31:22;11.90;;;3.17;;
11006;SDS011;8186;57.652;11.968;2023-03-23T14:33:51;9.90;;;2.90;;
11006;SDS011;8186;57.652;11.968;2023-03-23T14:36:21;13.60;;;3.10;;
11006;SDS011;8186;57.652;11.968;2023-03-23T14:38:56;12.93;;;3.10;;
11006;SDS011;8186;57.652;11.968;2023-03-23T14:41:28;11.20;;;2.67;;
11006;SDS011;8186;57.652;11.968;2023-03-23T14:43:56;13.37;;;3.23;;
11006;SDS011;8186;57.652;11.968;2023-03-23T14:46:23;14.13;;;3.40;;
11006;SDS011;8186;57.652;11.968;2023-03-23T14:48:51;19.60;;;4.00;;
11006;SDS011;8186;57.652;11.968;2023-03-23T14:51:18;13.87;;;3.87;;
11006;SDS011;8186;57.652;11.968;2023-03-23T14:53:46;15.87;;;4.03;;
11006;SDS011;8186;57.652;11.968;2023-03-23T14:56:22;18.83;;;4.03;;
11006;SDS011;8186;57.652;11.968;2023-03-23T14:58:53;17.20;;;3.77;;
11006;SDS011;8186;57.652;11.968;2023-03-23T15:01:22;23.03;;;4.60;;
11006;SDS011;8186;57.652;11.968;2023-03-23T15:03:53;23.67;;;4.10;;
11006;SDS011;8186;57.652;11.968;2023-03-23T15:06:22;15.87;;;4.50;;